<?xml version="1.0" encoding="UTF-8" standalone="no" ?>
<gpx xmlns="http://www.topografix.com/GPX/1/1" xmlns:xsi="http://www.w3.org/2001/XMLSchema-instance" xsi:schemaLocation="http://www.topografix.com/GPX/1/1 http://www.topografix.com/GPX/1/1/gpx.xsd" version="1.1" creator="VisuGPX - https://www.visugpx.com">
  <metadata>
    <name>Arêches-Le Clou</name>
    <desc><![CDATA[Carte IGN TOP25 : 3532 OT
Niveau AD.
Départ de Arêches-La Frasse.]]></desc>
  </metadata>
  <trk>
    <name><![CDATA[Arèches-Le Clou]]></name>
    <cmt><![CDATA[Carte IGN TOP25 : 3532 OT
Départ de Arêches-La Frasse.]]></cmt>
    <trkseg>
      <trkpt lat="45.69415" lon="6.56015">
        <ele>1038</ele>
        <time>2020-12-16T08:30:00.218Z</time>
      </trkpt>
      <trkpt lat="45.69406" lon="6.56017">
        <ele>1035</ele>
        <time>2020-12-16T08:30:18.603Z</time>
      </trkpt>
      <trkpt lat="45.69376" lon="6.5604">
        <ele>1027</ele>
        <time>2020-12-16T08:31:12.926Z</time>
      </trkpt>
      <trkpt lat="45.69351" lon="6.56003">
        <ele>1024</ele>
        <time>2020-12-16T08:32:03.157Z</time>
      </trkpt>
      <trkpt lat="45.69334" lon="6.55963">
        <ele>1025</ele>
        <time>2020-12-16T08:32:56.116Z</time>
      </trkpt>
      <trkpt lat="45.6932" lon="6.55954">
        <ele>1027</ele>
        <time>2020-12-16T08:33:25.745Z</time>
      </trkpt>
      <trkpt lat="45.69303" lon="6.55958">
        <ele>1030</ele>
        <time>2020-12-16T08:34:08.044Z</time>
      </trkpt>
      <trkpt lat="45.69306" lon="6.55908">
        <ele>1039</ele>
        <time>2020-12-16T08:36:10.773Z</time>
      </trkpt>
      <trkpt lat="45.69291" lon="6.55898">
        <ele>1045</ele>
        <time>2020-12-16T08:37:16.266Z</time>
      </trkpt>
      <trkpt lat="45.69289" lon="6.55875">
        <ele>1051</ele>
        <time>2020-12-16T08:38:25.170Z</time>
      </trkpt>
      <trkpt lat="45.6926" lon="6.55862">
        <ele>1064</ele>
        <time>2020-12-16T08:41:01.472Z</time>
      </trkpt>
      <trkpt lat="45.69248" lon="6.55869">
        <ele>1070</ele>
        <time>2020-12-16T08:42:08.921Z</time>
      </trkpt>
      <trkpt lat="45.69238" lon="6.55892">
        <ele>1079</ele>
        <time>2020-12-16T08:43:46.270Z</time>
      </trkpt>
      <trkpt lat="45.69231" lon="6.55892">
        <ele>1083</ele>
        <time>2020-12-16T08:44:26.926Z</time>
      </trkpt>
      <trkpt lat="45.6919" lon="6.55864">
        <ele>1104</ele>
        <time>2020-12-16T08:48:12.105Z</time>
      </trkpt>
      <trkpt lat="45.69152" lon="6.5579">
        <ele>1131</ele>
        <time>2020-12-16T08:52:52.416Z</time>
      </trkpt>
      <trkpt lat="45.69114" lon="6.55721">
        <ele>1153</ele>
        <time>2020-12-16T08:56:57.536Z</time>
      </trkpt>
      <trkpt lat="45.69088" lon="6.55704">
        <ele>1163</ele>
        <time>2020-12-16T08:58:49.552Z</time>
      </trkpt>
      <trkpt lat="45.69059" lon="6.55675">
        <ele>1175</ele>
        <time>2020-12-16T09:00:55.209Z</time>
      </trkpt>
      <trkpt lat="45.6904" lon="6.55636">
        <ele>1185</ele>
        <time>2020-12-16T09:02:42.015Z</time>
      </trkpt>
      <trkpt lat="45.68999" lon="6.55568">
        <ele>1202</ele>
        <time>2020-12-16T09:05:46.392Z</time>
      </trkpt>
      <trkpt lat="45.68985" lon="6.55532">
        <ele>1209</ele>
        <time>2020-12-16T09:06:53.038Z</time>
      </trkpt>
      <trkpt lat="45.68958" lon="6.55466">
        <ele>1218</ele>
        <time>2020-12-16T09:08:49.196Z</time>
      </trkpt>
      <trkpt lat="45.68939" lon="6.55438">
        <ele>1223</ele>
        <time>2020-12-16T09:09:50.621Z</time>
      </trkpt>
      <trkpt lat="45.6892" lon="6.55403">
        <ele>1229</ele>
        <time>2020-12-16T09:11:04.528Z</time>
      </trkpt>
      <trkpt lat="45.68911" lon="6.55372">
        <ele>1234</ele>
        <time>2020-12-16T09:12:15.285Z</time>
      </trkpt>
      <trkpt lat="45.68912" lon="6.55345">
        <ele>1239</ele>
        <time>2020-12-16T09:13:11.975Z</time>
      </trkpt>
      <trkpt lat="45.68896" lon="6.55319">
        <ele>1247</ele>
        <time>2020-12-16T09:14:50.808Z</time>
      </trkpt>
      <trkpt lat="45.6888" lon="6.55272">
        <ele>1261</ele>
        <time>2020-12-16T09:16:56.185Z</time>
      </trkpt>
      <trkpt lat="45.68786" lon="6.55054">
        <ele>1312</ele>
        <time>2020-12-16T09:25:00.040Z</time>
      </trkpt>
      <trkpt lat="45.6876" lon="6.55016">
        <ele>1313</ele>
        <time>2020-12-16T09:25:54.758Z</time>
      </trkpt>
      <trkpt lat="45.68752" lon="6.54988">
        <ele>1314</ele>
        <time>2020-12-16T09:26:25.238Z</time>
      </trkpt>
      <trkpt lat="45.68766" lon="6.54945">
        <ele>1315</ele>
        <time>2020-12-16T09:27:15.137Z</time>
      </trkpt>
      <trkpt lat="45.68786" lon="6.54922">
        <ele>1317</ele>
        <time>2020-12-16T09:27:59.369Z</time>
      </trkpt>
      <trkpt lat="45.688" lon="6.5489">
        <ele>1321</ele>
        <time>2020-12-16T09:29:05.509Z</time>
      </trkpt>
      <trkpt lat="45.68781" lon="6.5476">
        <ele>1343</ele>
        <time>2020-12-16T09:33:27.788Z</time>
      </trkpt>
      <trkpt lat="45.68758" lon="6.54709">
        <ele>1355</ele>
        <time>2020-12-16T09:35:44.929Z</time>
      </trkpt>
      <trkpt lat="45.68739" lon="6.54646">
        <ele>1369</ele>
        <time>2020-12-16T09:38:24.067Z</time>
      </trkpt>
      <trkpt lat="45.6871" lon="6.54622">
        <ele>1379</ele>
        <time>2020-12-16T09:40:13.889Z</time>
      </trkpt>
      <trkpt lat="45.68694" lon="6.54572">
        <ele>1390</ele>
        <time>2020-12-16T09:42:15.279Z</time>
      </trkpt>
      <trkpt lat="45.68703" lon="6.54469">
        <ele>1410</ele>
        <time>2020-12-16T09:45:50.795Z</time>
      </trkpt>
      <trkpt lat="45.68693" lon="6.54407">
        <ele>1421</ele>
        <time>2020-12-16T09:47:58.560Z</time>
      </trkpt>
      <trkpt lat="45.68676" lon="6.54371">
        <ele>1429</ele>
        <time>2020-12-16T09:49:22.535Z</time>
      </trkpt>
      <trkpt lat="45.6865" lon="6.54374">
        <ele>1435</ele>
        <time>2020-12-16T09:50:33.007Z</time>
      </trkpt>
      <trkpt lat="45.68614" lon="6.54346">
        <ele>1445</ele>
        <time>2020-12-16T09:52:26.078Z</time>
      </trkpt>
      <trkpt lat="45.68586" lon="6.54352">
        <ele>1452</ele>
        <time>2020-12-16T09:53:47.472Z</time>
      </trkpt>
      <trkpt lat="45.68523" lon="6.5427">
        <ele>1474</ele>
        <time>2020-12-16T09:58:04.286Z</time>
      </trkpt>
      <trkpt lat="45.68518" lon="6.54241">
        <ele>1480</ele>
        <time>2020-12-16T09:59:08.309Z</time>
      </trkpt>
      <trkpt lat="45.68508" lon="6.54229">
        <ele>1484</ele>
        <time>2020-12-16T09:59:52.255Z</time>
      </trkpt>
      <trkpt lat="45.6849" lon="6.54229">
        <ele>1489</ele>
        <time>2020-12-16T10:00:52.633Z</time>
      </trkpt>
      <trkpt lat="45.68467" lon="6.54206">
        <ele>1498</ele>
        <time>2020-12-16T10:02:13.937Z</time>
      </trkpt>
      <trkpt lat="45.68313" lon="6.54102">
        <ele>1539</ele>
        <time>2020-12-16T10:09:17.988Z</time>
      </trkpt>
      <trkpt lat="45.68275" lon="6.54054">
        <ele>1547</ele>
        <time>2020-12-16T10:11:03.778Z</time>
      </trkpt>
      <trkpt lat="45.68291" lon="6.54008">
        <ele>1553</ele>
        <time>2020-12-16T10:12:24.782Z</time>
      </trkpt>
      <trkpt lat="45.6829" lon="6.53989">
        <ele>1556</ele>
        <time>2020-12-16T10:12:54.831Z</time>
      </trkpt>
      <trkpt lat="45.68269" lon="6.53967">
        <ele>1561</ele>
        <time>2020-12-16T10:14:08.201Z</time>
      </trkpt>
      <trkpt lat="45.68259" lon="6.53947">
        <ele>1566</ele>
        <time>2020-12-16T10:14:58.041Z</time>
      </trkpt>
      <trkpt lat="45.68308" lon="6.53924">
        <ele>1580</ele>
        <time>2020-12-16T10:17:36.780Z</time>
      </trkpt>
      <trkpt lat="45.68302" lon="6.53916">
        <ele>1582</ele>
        <time>2020-12-16T10:18:02.831Z</time>
      </trkpt>
      <trkpt lat="45.68311" lon="6.53914">
        <ele>1585</ele>
        <time>2020-12-16T10:18:31.963Z</time>
      </trkpt>
      <trkpt lat="45.68334" lon="6.53927">
        <ele>1592</ele>
        <time>2020-12-16T10:19:51.734Z</time>
      </trkpt>
      <trkpt lat="45.68344" lon="6.53924">
        <ele>1595</ele>
        <time>2020-12-16T10:20:23.520Z</time>
      </trkpt>
      <trkpt lat="45.68354" lon="6.53908">
        <ele>1599</ele>
        <time>2020-12-16T10:21:11.957Z</time>
      </trkpt>
      <trkpt lat="45.68378" lon="6.5389">
        <ele>1607</ele>
        <time>2020-12-16T10:22:41.302Z</time>
      </trkpt>
      <trkpt lat="45.68408" lon="6.53881">
        <ele>1616</ele>
        <time>2020-12-16T10:24:19.193Z</time>
      </trkpt>
      <trkpt lat="45.68434" lon="6.53861">
        <ele>1624</ele>
        <time>2020-12-16T10:25:46.474Z</time>
      </trkpt>
      <trkpt lat="45.6844" lon="6.53849">
        <ele>1627</ele>
        <time>2020-12-16T10:26:18.297Z</time>
      </trkpt>
      <trkpt lat="45.68457" lon="6.53844">
        <ele>1631</ele>
        <time>2020-12-16T10:27:10.455Z</time>
      </trkpt>
      <trkpt lat="45.68484" lon="6.53821">
        <ele>1640</ele>
        <time>2020-12-16T10:28:47.761Z</time>
      </trkpt>
      <trkpt lat="45.68486" lon="6.5381">
        <ele>1642</ele>
        <time>2020-12-16T10:29:14.262Z</time>
      </trkpt>
      <trkpt lat="45.6845" lon="6.53787">
        <ele>1653</ele>
        <time>2020-12-16T10:31:17.572Z</time>
      </trkpt>
      <trkpt lat="45.68444" lon="6.53771">
        <ele>1657</ele>
        <time>2020-12-16T10:31:55.601Z</time>
      </trkpt>
      <trkpt lat="45.68478" lon="6.53758">
        <ele>1666</ele>
        <time>2020-12-16T10:33:43.727Z</time>
      </trkpt>
      <trkpt lat="45.68499" lon="6.53734">
        <ele>1674</ele>
        <time>2020-12-16T10:35:12.346Z</time>
      </trkpt>
      <trkpt lat="45.68516" lon="6.53697">
        <ele>1683</ele>
        <time>2020-12-16T10:36:50.512Z</time>
      </trkpt>
      <trkpt lat="45.68549" lon="6.53647">
        <ele>1696</ele>
        <time>2020-12-16T10:39:18.262Z</time>
      </trkpt>
      <trkpt lat="45.68552" lon="6.53618">
        <ele>1702</ele>
        <time>2020-12-16T10:40:21.514Z</time>
      </trkpt>
      <trkpt lat="45.68543" lon="6.53628">
        <ele>1705</ele>
        <time>2020-12-16T10:40:53.765Z</time>
      </trkpt>
      <trkpt lat="45.68504" lon="6.53613">
        <ele>1715</ele>
        <time>2020-12-16T10:42:54.798Z</time>
      </trkpt>
      <trkpt lat="45.68491" lon="6.53585">
        <ele>1722</ele>
        <time>2020-12-16T10:44:03.945Z</time>
      </trkpt>
      <trkpt lat="45.68446" lon="6.53555">
        <ele>1734</ele>
        <time>2020-12-16T10:46:05.932Z</time>
      </trkpt>
      <trkpt lat="45.68373" lon="6.53436">
        <ele>1757</ele>
        <time>2020-12-16T10:50:37.365Z</time>
      </trkpt>
      <trkpt lat="45.68363" lon="6.53405">
        <ele>1763</ele>
        <time>2020-12-16T10:51:40.718Z</time>
      </trkpt>
      <trkpt lat="45.68348" lon="6.53386">
        <ele>1767</ele>
        <time>2020-12-16T10:52:32.214Z</time>
      </trkpt>
      <trkpt lat="45.6834" lon="6.53353">
        <ele>1773</ele>
        <time>2020-12-16T10:53:44.445Z</time>
      </trkpt>
      <trkpt lat="45.68328" lon="6.53333">
        <ele>1778</ele>
        <time>2020-12-16T10:54:37.865Z</time>
      </trkpt>
      <trkpt lat="45.68326" lon="6.53312">
        <ele>1782</ele>
        <time>2020-12-16T10:55:24.582Z</time>
      </trkpt>
      <trkpt lat="45.68355" lon="6.53209">
        <ele>1803</ele>
        <time>2020-12-16T10:59:22.126Z</time>
      </trkpt>
      <trkpt lat="45.68356" lon="6.53173">
        <ele>1810</ele>
        <time>2020-12-16T11:00:35.292Z</time>
      </trkpt>
      <trkpt lat="45.6838" lon="6.53088">
        <ele>1826</ele>
        <time>2020-12-16T11:03:34.865Z</time>
      </trkpt>
      <trkpt lat="45.6841" lon="6.53071">
        <ele>1834</ele>
        <time>2020-12-16T11:05:03.836Z</time>
      </trkpt>
      <trkpt lat="45.68455" lon="6.52996">
        <ele>1851</ele>
        <time>2020-12-16T11:08:01.649Z</time>
      </trkpt>
      <trkpt lat="45.68404" lon="6.52892">
        <ele>1870</ele>
        <time>2020-12-16T11:11:39.897Z</time>
      </trkpt>
      <trkpt lat="45.68428" lon="6.52807">
        <ele>1884</ele>
        <time>2020-12-16T11:14:17.645Z</time>
      </trkpt>
      <trkpt lat="45.68457" lon="6.52803">
        <ele>1890</ele>
        <time>2020-12-16T11:15:29.162Z</time>
      </trkpt>
      <trkpt lat="45.68487" lon="6.5278">
        <ele>1898</ele>
        <time>2020-12-16T11:16:46.870Z</time>
      </trkpt>
      <trkpt lat="45.68498" lon="6.52777">
        <ele>1900</ele>
        <time>2020-12-16T11:17:11.472Z</time>
      </trkpt>
      <trkpt lat="45.68546" lon="6.52729">
        <ele>1909</ele>
        <time>2020-12-16T11:18:50.509Z</time>
      </trkpt>
      <trkpt lat="45.68564" lon="6.5272">
        <ele>1911</ele>
        <time>2020-12-16T11:19:23.875Z</time>
      </trkpt>
      <trkpt lat="45.68583" lon="6.52681">
        <ele>1912</ele>
        <time>2020-12-16T11:20:09.647Z</time>
      </trkpt>
      <trkpt lat="45.68564" lon="6.52613">
        <ele>1909</ele>
        <time>2020-12-16T11:21:24.218Z</time>
      </trkpt>
      <trkpt lat="45.68586" lon="6.5256">
        <ele>1903</ele>
        <time>2020-12-16T11:22:37.918Z</time>
      </trkpt>
      <trkpt lat="45.68597" lon="6.52554">
        <ele>1900</ele>
        <time>2020-12-16T11:22:57.977Z</time>
      </trkpt>
      <trkpt lat="45.68621" lon="6.52528">
        <ele>1894</ele>
        <time>2020-12-16T11:24:01.778Z</time>
      </trkpt>
      <trkpt lat="45.68631" lon="6.52526">
        <ele>1891</ele>
        <time>2020-12-16T11:24:22.767Z</time>
      </trkpt>
      <trkpt lat="45.68685" lon="6.52557">
        <ele>1875</ele>
        <time>2020-12-16T11:26:33.800Z</time>
      </trkpt>
      <trkpt lat="45.68711" lon="6.52556">
        <ele>1867</ele>
        <time>2020-12-16T11:27:45.673Z</time>
      </trkpt>
      <trkpt lat="45.68723" lon="6.52565">
        <ele>1863</ele>
        <time>2020-12-16T11:28:20.170Z</time>
      </trkpt>
      <trkpt lat="45.68791" lon="6.52556">
        <ele>1839</ele>
        <time>2020-12-16T11:31:25.335Z</time>
      </trkpt>
      <trkpt lat="45.68818" lon="6.52533">
        <ele>1829</ele>
        <time>2020-12-16T11:32:31.333Z</time>
      </trkpt>
      <trkpt lat="45.68861" lon="6.52512">
        <ele>1820</ele>
        <time>2020-12-16T11:33:34.434Z</time>
      </trkpt>
      <trkpt lat="45.68911" lon="6.52454">
        <ele>1830</ele>
        <time>2020-12-16T11:35:45.389Z</time>
      </trkpt>
      <trkpt lat="45.6892" lon="6.52452">
        <ele>1834</ele>
        <time>2020-12-16T11:36:07.318Z</time>
      </trkpt>
      <trkpt lat="45.6892" lon="6.52452">
        <ele>1834</ele>
        <time>2020-12-16T12:30:00.914Z</time>
      </trkpt>
      <trkpt lat="45.69011" lon="6.52495">
        <ele>1836</ele>
        <time>2020-12-16T12:32:12.635Z</time>
      </trkpt>
      <trkpt lat="45.69049" lon="6.52537">
        <ele>1834</ele>
        <time>2020-12-16T12:33:19.111Z</time>
      </trkpt>
      <trkpt lat="45.69088" lon="6.52563">
        <ele>1832</ele>
        <time>2020-12-16T12:34:18.621Z</time>
      </trkpt>
      <trkpt lat="45.6912" lon="6.52572">
        <ele>1830</ele>
        <time>2020-12-16T12:35:04.541Z</time>
      </trkpt>
      <trkpt lat="45.69142" lon="6.52595">
        <ele>1828</ele>
        <time>2020-12-16T12:35:42.422Z</time>
      </trkpt>
      <trkpt lat="45.69172" lon="6.52662">
        <ele>1826</ele>
        <time>2020-12-16T12:36:58.826Z</time>
      </trkpt>
      <trkpt lat="45.69184" lon="6.52717">
        <ele>1824</ele>
        <time>2020-12-16T12:37:55.121Z</time>
      </trkpt>
      <trkpt lat="45.69205" lon="6.52757">
        <ele>1823</ele>
        <time>2020-12-16T12:38:43.408Z</time>
      </trkpt>
      <trkpt lat="45.69224" lon="6.52726">
        <ele>1822</ele>
        <time>2020-12-16T12:39:23.647Z</time>
      </trkpt>
      <trkpt lat="45.69237" lon="6.52777">
        <ele>1821</ele>
        <time>2020-12-16T12:40:16.092Z</time>
      </trkpt>
      <trkpt lat="45.69243" lon="6.52838">
        <ele>1820</ele>
        <time>2020-12-16T12:41:15.925Z</time>
      </trkpt>
      <trkpt lat="45.69251" lon="6.52871">
        <ele>1819</ele>
        <time>2020-12-16T12:41:50.208Z</time>
      </trkpt>
      <trkpt lat="45.69302" lon="6.52981">
        <ele>1817</ele>
        <time>2020-12-16T12:43:56.693Z</time>
      </trkpt>
      <trkpt lat="45.69334" lon="6.53106">
        <ele>1818</ele>
        <time>2020-12-16T12:46:09.952Z</time>
      </trkpt>
      <trkpt lat="45.69367" lon="6.53167">
        <ele>1820</ele>
        <time>2020-12-16T12:47:30.819Z</time>
      </trkpt>
      <trkpt lat="45.6938" lon="6.53222">
        <ele>1822</ele>
        <time>2020-12-16T12:48:30.214Z</time>
      </trkpt>
      <trkpt lat="45.69402" lon="6.53252">
        <ele>1822</ele>
        <time>2020-12-16T12:49:11.581Z</time>
      </trkpt>
      <trkpt lat="45.6942" lon="6.53294">
        <ele>1822</ele>
        <time>2020-12-16T12:49:59.830Z</time>
      </trkpt>
      <trkpt lat="45.69437" lon="6.53349">
        <ele>1822</ele>
        <time>2020-12-16T12:50:57.497Z</time>
      </trkpt>
      <trkpt lat="45.69456" lon="6.53369">
        <ele>1820</ele>
        <time>2020-12-16T12:51:32.019Z</time>
      </trkpt>
      <trkpt lat="45.69471" lon="6.53375">
        <ele>1819</ele>
        <time>2020-12-16T12:51:53.262Z</time>
      </trkpt>
      <trkpt lat="45.69504" lon="6.53428">
        <ele>1815</ele>
        <time>2020-12-16T12:53:08.261Z</time>
      </trkpt>
      <trkpt lat="45.69578" lon="6.53451">
        <ele>1804</ele>
        <time>2020-12-16T12:55:08.729Z</time>
      </trkpt>
      <trkpt lat="45.69604" lon="6.53466">
        <ele>1799</ele>
        <time>2020-12-16T12:55:57.624Z</time>
      </trkpt>
      <trkpt lat="45.69629" lon="6.53498">
        <ele>1792</ele>
        <time>2020-12-16T12:57:04.272Z</time>
      </trkpt>
      <trkpt lat="45.69658" lon="6.53499">
        <ele>1785</ele>
        <time>2020-12-16T12:58:04.461Z</time>
      </trkpt>
      <trkpt lat="45.69753" lon="6.5355">
        <ele>1759</ele>
        <time>2020-12-16T13:01:36.479Z</time>
      </trkpt>
      <trkpt lat="45.69791" lon="6.53572">
        <ele>1749</ele>
        <time>2020-12-16T13:03:01.364Z</time>
      </trkpt>
      <trkpt lat="45.69842" lon="6.53639">
        <ele>1732</ele>
        <time>2020-12-16T13:05:21.007Z</time>
      </trkpt>
      <trkpt lat="45.69842" lon="6.53672">
        <ele>1727</ele>
        <time>2020-12-16T13:06:02.891Z</time>
      </trkpt>
      <trkpt lat="45.69851" lon="6.53691">
        <ele>1724</ele>
        <time>2020-12-16T13:06:33.011Z</time>
      </trkpt>
      <trkpt lat="45.6988" lon="6.53707">
        <ele>1718</ele>
        <time>2020-12-16T13:07:28.477Z</time>
      </trkpt>
      <trkpt lat="45.69899" lon="6.5374">
        <ele>1712</ele>
        <time>2020-12-16T13:08:21.236Z</time>
      </trkpt>
      <trkpt lat="45.69903" lon="6.53756">
        <ele>1710</ele>
        <time>2020-12-16T13:08:40.952Z</time>
      </trkpt>
      <trkpt lat="45.69899" lon="6.53772">
        <ele>1708</ele>
        <time>2020-12-16T13:09:00.810Z</time>
      </trkpt>
      <trkpt lat="45.6986" lon="6.53825">
        <ele>1699</ele>
        <time>2020-12-16T13:10:29.220Z</time>
      </trkpt>
      <trkpt lat="45.69847" lon="6.53884">
        <ele>1692</ele>
        <time>2020-12-16T13:11:38.739Z</time>
      </trkpt>
      <trkpt lat="45.6978" lon="6.53938">
        <ele>1680</ele>
        <time>2020-12-16T13:13:43.740Z</time>
      </trkpt>
      <trkpt lat="45.69748" lon="6.53984">
        <ele>1672</ele>
        <time>2020-12-16T13:15:00.565Z</time>
      </trkpt>
      <trkpt lat="45.69725" lon="6.5399">
        <ele>1668</ele>
        <time>2020-12-16T13:15:46.406Z</time>
      </trkpt>
      <trkpt lat="45.69714" lon="6.54004">
        <ele>1665</ele>
        <time>2020-12-16T13:16:14.116Z</time>
      </trkpt>
      <trkpt lat="45.69707" lon="6.54086">
        <ele>1651</ele>
        <time>2020-12-16T13:18:16.022Z</time>
      </trkpt>
      <trkpt lat="45.69716" lon="6.54125">
        <ele>1643</ele>
        <time>2020-12-16T13:19:24.797Z</time>
      </trkpt>
      <trkpt lat="45.69732" lon="6.54324">
        <ele>1600</ele>
        <time>2020-12-16T13:25:18.613Z</time>
      </trkpt>
      <trkpt lat="45.69706" lon="6.54401">
        <ele>1580</ele>
        <time>2020-12-16T13:27:58.570Z</time>
      </trkpt>
      <trkpt lat="45.69699" lon="6.54447">
        <ele>1569</ele>
        <time>2020-12-16T13:29:29.974Z</time>
      </trkpt>
      <trkpt lat="45.69696" lon="6.54601">
        <ele>1531</ele>
        <time>2020-12-16T13:34:47.419Z</time>
      </trkpt>
      <trkpt lat="45.69687" lon="6.54691">
        <ele>1506</ele>
        <time>2020-12-16T13:38:21.263Z</time>
      </trkpt>
      <trkpt lat="45.69671" lon="6.54787">
        <ele>1475</ele>
        <time>2020-12-16T13:42:33.958Z</time>
      </trkpt>
      <trkpt lat="45.69649" lon="6.54864">
        <ele>1448</ele>
        <time>2020-12-16T13:46:00.937Z</time>
      </trkpt>
      <trkpt lat="45.69636" lon="6.54936">
        <ele>1426</ele>
        <time>2020-12-16T13:48:50.306Z</time>
      </trkpt>
      <trkpt lat="45.69616" lon="6.55008">
        <ele>1405</ele>
        <time>2020-12-16T13:51:37.447Z</time>
      </trkpt>
      <trkpt lat="45.69587" lon="6.55054">
        <ele>1388</ele>
        <time>2020-12-16T13:53:52.200Z</time>
      </trkpt>
      <trkpt lat="45.69585" lon="6.55132">
        <ele>1367</ele>
        <time>2020-12-16T13:56:51.469Z</time>
      </trkpt>
      <trkpt lat="45.69565" lon="6.55211">
        <ele>1342</ele>
        <time>2020-12-16T14:00:35.076Z</time>
      </trkpt>
      <trkpt lat="45.69523" lon="6.55271">
        <ele>1310</ele>
        <time>2020-12-16T14:04:56.799Z</time>
      </trkpt>
      <trkpt lat="45.6952" lon="6.55317">
        <ele>1292</ele>
        <time>2020-12-16T14:07:30.918Z</time>
      </trkpt>
      <trkpt lat="45.69533" lon="6.55423">
        <ele>1245</ele>
        <time>2020-12-16T14:13:33.919Z</time>
      </trkpt>
      <trkpt lat="45.69534" lon="6.55486">
        <ele>1220</ele>
        <time>2020-12-16T14:16:44.773Z</time>
      </trkpt>
      <trkpt lat="45.69527" lon="6.55552">
        <ele>1196</ele>
        <time>2020-12-16T14:19:38.262Z</time>
      </trkpt>
      <trkpt lat="45.6951" lon="6.55607">
        <ele>1179</ele>
        <time>2020-12-16T14:21:40.975Z</time>
      </trkpt>
      <trkpt lat="45.69488" lon="6.55644">
        <ele>1168</ele>
        <time>2020-12-16T14:23:10.275Z</time>
      </trkpt>
      <trkpt lat="45.69463" lon="6.55668">
        <ele>1158</ele>
        <time>2020-12-16T14:24:25.464Z</time>
      </trkpt>
      <trkpt lat="45.69445" lon="6.55672">
        <ele>1153</ele>
        <time>2020-12-16T14:25:10.791Z</time>
      </trkpt>
      <trkpt lat="45.69426" lon="6.55641">
        <ele>1144</ele>
        <time>2020-12-16T14:26:25.065Z</time>
      </trkpt>
      <trkpt lat="45.69408" lon="6.55675">
        <ele>1134</ele>
        <time>2020-12-16T14:27:47.637Z</time>
      </trkpt>
      <trkpt lat="45.69415" lon="6.5574">
        <ele>1118</ele>
        <time>2020-12-16T14:30:08.635Z</time>
      </trkpt>
      <trkpt lat="45.69414" lon="6.55827">
        <ele>1093</ele>
        <time>2020-12-16T14:33:35.107Z</time>
      </trkpt>
      <trkpt lat="45.69424" lon="6.55876">
        <ele>1077</ele>
        <time>2020-12-16T14:35:42.405Z</time>
      </trkpt>
      <trkpt lat="45.69426" lon="6.55911">
        <ele>1066</ele>
        <time>2020-12-16T14:37:05.936Z</time>
      </trkpt>
      <trkpt lat="45.69435" lon="6.55952">
        <ele>1054</ele>
        <time>2020-12-16T14:38:40.428Z</time>
      </trkpt>
      <trkpt lat="45.69435" lon="6.55979">
        <ele>1047</ele>
        <time>2020-12-16T14:39:35.459Z</time>
      </trkpt>
      <trkpt lat="45.6944" lon="6.56002">
        <ele>1040</ele>
        <time>2020-12-16T14:40:29.674Z</time>
      </trkpt>
      <trkpt lat="45.69424" lon="6.56013">
        <ele>1035</ele>
        <time>2020-12-16T14:41:18.096Z</time>
      </trkpt>
    </trkseg>
  </trk>
</gpx>